PATA/TAL METAR and TAF weather

Enter ICAO airport designator
Station Type Date Time Source
PATA METAR 2024/04/17 18:52 UTC NOAA

PATA 171852Z 04008KT 10SM OVC120 03/M06 A3017 RMK AO2 SLP221 T00281056 PNO $


Station Type Date Time Source
PATA Decoded METAR 2024/04/17 18:52 UTC NOAA

TANANA CALHOUN MEMORIAL AIRPORT , AK, United States (PATA) 65-10N 152-06W 67M
Apr 17, 2024 - 02:52 PM EDT / 2024.04.17 1852 UTC
Wind: from the NE (040 degrees) at 9 MPH (8 KT):0
Visibility: 10 mile(s):0
Sky conditions: overcast
Temperature: 37.0 F (2.8 C)
Dew Point: 21.9 F (-5.6 C)
Relative Humidity: 53%
Pressure (altimeter): 30.17 in. Hg (1021 hPa)
ob: PATA 171852Z 04008KT 10SM OVC120 03/M06 A3017 RMK AO2 SLP221 T00281056 PNO
cycle: 19

Station Type Date Time Source
PATA TAF 2024/04/17 18:46 UTC NOAA